Time;durP1;ratioP1;P1;durP2;ratioP2;P2;SDS_P1;SDS_P2;PMS_P1;PMS_P2;Temp;Humidity;BMP_temperature;BMP_pressure;BME280_temperature;BME280_humidity;BME280_pressure;Samples;Min_cycle;Max_cycle;Signal;HPM_P1;HPM_P2
2022/06/23 00:01:17;;;;;;;;;;;;;;;16.61;60.89;100256.31;4959203;29;1906;-46
2022/06/23 00:03:42;;;;;;;;;;;;;;;16.56;61.70;100254.44;4959311;29;1129;-49
2022/06/23 00:06:08;;;;;;;;;;;;;;;16.06;61.87;100251.75;4958920;29;1090;-48
2022/06/23 00:08:43;;;;;;;;;;;;;;;15.89;61.15;100263.06;4941985;29;1209;-46
2022/06/23 00:11:24;;;;;;;;;;;;;;;15.86;60.51;100260.06;4959194;29;1169;-48
2022/06/23 00:13:50;;;;;;;;;;;;;;;15.77;60.27;100254.31;4958563;28;1122;-45
2022/06/23 00:16:33;;;;;;;;;;;;;;;15.69;60.17;100258.44;4959206;28;1133;-47
2022/06/23 00:18:58;;;;;;;;;;;;;;;15.66;59.88;100248.06;4942170;29;1201;-48
2022/06/23 00:21:28;;;;;;;;;;;;;;;15.65;59.64;100253.81;4958800;29;1910;-48
2022/06/23 00:23:54;;;;;;;;;;;;;;;15.60;59.67;100251.94;4959758;28;1196;-48
2022/06/23 00:26:27;;;;;;;;;;;;;;;15.58;59.71;100256.84;4941673;29;1149;-46
2022/06/23 00:29:06;;;;;;;;;;;;;;;15.53;59.71;100237.72;4961455;28;1247;-47
2022/06/23 00:31:34;;;;;;;;;;;;;;;15.49;59.79;100236.63;4958743;28;1219;-46
2022/06/23 00:34:00;;;;;;;;;;;;;;;15.46;59.66;100237.16;4938771;28;1142;-47
2022/06/23 00:36:29;;;;;;;;;;;;;;;15.46;59.37;100231.69;4968151;28;990;-46
2022/06/23 00:38:54;;;;;;;;;;;;;;;15.44;59.68;100231.16;4952711;29;1157;-48
2022/06/23 00:41:21;;;;;;;;;;;;;;;16.88;60.75;100239.38;4941462;29;1887;-48
2022/06/23 00:43:47;;;;;;;;;;;;;;;16.40;61.43;100240.00;4941047;29;1157;-46
2022/06/23 00:46:15;;;;;;;;;;;;;;;16.02;61.29;100245.19;4959832;28;1196;-47
2022/06/23 00:48:42;;;;;;;;;;;;;;;15.89;61.08;100251.28;4941115;29;1205;-48
2022/06/23 00:51:46;;;;;;;;;;;;;;;15.77;60.67;100248.00;4958232;28;1281;-46
2022/06/23 00:54:16;;;;;;;;;;;;;;;15.73;60.40;100254.06;4880551;29;1387;-47
2022/06/23 00:57:00;;;;;;;;;;;;;;;15.68;60.21;100245.88;4858946;29;1183;-46
2022/06/23 00:59:41;;;;;;;;;;;;;;;15.60;59.98;100237.38;4932319;28;1278;-49
2022/06/23 01:02:06;;;;;;;;;;;;;;;15.57;60.10;100233.28;4958896;28;1910;-47
2022/06/23 01:04:51;;;;;;;;;;;;;;;15.57;59.57;100236.03;4957326;29;1184;-48
2022/06/23 01:07:32;;;;;;;;;;;;;;;15.51;59.50;100239.91;4957647;29;1224;-49
2022/06/23 01:10:23;;;;;;;;;;;;;;;15.47;59.68;100238.81;4963491;28;1172;-49
2022/06/23 01:12:52;;;;;;;;;;;;;;;15.44;59.40;100239.38;4924534;29;1170;-48
2022/06/23 01:15:22;;;;;;;;;;;;;;;15.42;59.43;100241.56;4957627;28;1231;-49
2022/06/23 01:17:52;;;;;;;;;;;;;;;15.39;59.64;100243.75;4941201;29;1161;-48
2022/06/23 01:20:26;;;;;;;;;;;;;;;15.69;60.11;100247.50;4940243;28;991;-46
2022/06/23 01:22:54;;;;;;;;;;;;;;;17.01;60.42;100251.63;4940980;29;1989;-46
2022/06/23 01:25:19;;;;;;;;;;;;;;;16.16;61.58;100250.03;4940964;29;1209;-46
2022/06/23 01:28:23;;;;;;;;;;;;;;;15.93;61.05;100260.56;4954511;28;1533;-49
2022/06/23 01:30:54;;;;;;;;;;;;;;;15.81;60.68;100254.59;4898612;29;1307;-44
2022/06/23 01:33:24;;;;;;;;;;;;;;;15.76;60.43;100262.84;4898400;29;1269;-49
2022/06/23 01:36:00;;;;;;;;;;;;;;;15.68;60.30;100261.47;4929544;29;1283;-47
2022/06/23 01:38:46;;;;;;;;;;;;;;;15.62;60.05;100263.41;4958114;29;1243;-47
2022/06/23 01:41:15;;;;;;;;;;;;;;;15.58;59.90;100267.81;4956802;28;1906;-48
2022/06/23 01:43:42;;;;;;;;;;;;;;;15.54;59.64;100285.91;4940488;29;1125;-49
2022/06/23 01:46:14;;;;;;;;;;;;;;;15.49;59.74;100285.94;4940960;28;1178;-48
2022/06/23 01:48:51;;;;;;;;;;;;;;;15.47;59.83;100299.09;4957317;28;1224;-50
2022/06/23 01:51:23;;;;;;;;;;;;;;;15.43;59.41;100303.47;4960064;28;1137;-49
2022/06/23 01:53:49;;;;;;;;;;;;;;;15.40;59.61;100300.22;4966508;28;1168;-50
2022/06/23 01:56:33;;;;;;;;;;;;;;;15.38;59.54;100296.09;4957507;28;1181;-49
2022/06/23 01:59:10;;;;;;;;;;;;;;;15.37;59.48;100298.00;4965034;28;1125;-50
2022/06/23 02:01:42;;;;;;;;;;;;;;;17.01;60.45;100302.97;4962635;28;1906;-50
2022/06/23 02:04:13;;;;;;;;;;;;;;;16.39;61.65;100303.41;4957079;28;1161;-49
2022/06/23 02:06:43;;;;;;;;;;;;;;;16.03;61.45;100306.31;4960467;28;1108;-53
2022/06/23 02:09:15;;;;;;;;;;;;;;;15.90;60.85;100307.75;4964197;28;1205;-49
2022/06/23 02:11:45;;;;;;;;;;;;;;;15.77;60.57;100302.81;4963908;28;1160;-48
2022/06/23 02:14:11;;;;;;;;;;;;;;;15.77;60.18;100308.31;4963637;28;1157;-51
2022/06/23 02:16:52;;;;;;;;;;;;;;;15.66;60.09;100297.38;4964622;28;1121;-50
2022/06/23 02:19:17;;;;;;;;;;;;;;;15.63;60.11;100302.63;4947425;28;1073;-48
2022/06/23 02:21:49;;;;;;;;;;;;;;;15.57;59.81;100308.13;4957071;29;1972;-48
2022/06/23 02:24:24;;;;;;;;;;;;;;;15.57;59.49;100310.00;4958407;28;1160;-52
2022/06/23 02:26:55;;;;;;;;;;;;;;;15.51;59.77;100311.94;4963124;28;1228;-49
2022/06/23 02:29:32;;;;;;;;;;;;;;;15.45;59.67;100306.78;4957370;28;1196;-48
2022/06/23 02:32:02;;;;;;;;;;;;;;;15.46;59.60;100303.75;4940120;29;1145;-47
2022/06/23 02:34:35;;;;;;;;;;;;;;;15.42;59.45;100310.06;4957119;28;1400;-47
2022/06/23 02:37:19;;;;;;;;;;;;;;;15.43;59.44;100308.97;4938510;29;1086;-44
2022/06/23 02:39:45;;;;;;;;;;;;;;;16.96;60.48;100309.34;4942774;28;1169;-46
2022/06/23 02:42:37;;;;;;;;;;;;;;;16.31;61.37;100302.06;4949943;29;1911;-45
2022/06/23 02:45:03;;;;;;;;;;;;;;;15.97;61.06;100308.28;4945373;28;1509;-45
2022/06/23 02:47:31;;;;;;;;;;;;;;;15.84;60.72;100297.91;4958575;28;1282;-51
2022/06/23 02:50:07;;;;;;;;;;;;;;;15.73;60.53;100300.66;4960698;28;1188;-47
2022/06/23 02:52:46;;;;;;;;;;;;;;;15.65;60.20;100295.75;4955388;28;1239;-46
2022/06/23 02:55:26;;;;;;;;;;;;;;;15.65;59.88;100295.75;4931792;29;1138;-49
2022/06/23 02:57:52;;;;;;;;;;;;;;;15.60;59.72;100295.78;4960541;28;2430;-49
2022/06/23 03:00:44;;;;;;;;;;;;;;;15.52;59.74;100299.91;4964910;28;2082;-51
2022/06/23 03:03:13;;;;;;;;;;;;;;;15.52;59.40;100296.34;4950963;29;1981;-50
2022/06/23 03:05:39;;;;;;;;;;;;;;;15.51;59.48;100302.91;4960957;28;2290;-51
2022/06/23 03:08:04;;;;;;;;;;;;;;;15.46;59.41;100302.91;4960905;28;2097;-53
2022/06/23 03:10:42;;;;;;;;;;;;;;;16.10;60.35;100295.06;4962050;28;2538;-52
2022/06/23 03:13:09;;;;;;;;;;;;;;;16.55;60.86;100312.34;4960152;28;2104;-53
2022/06/23 03:15:40;;;;;;;;;;;;;;;16.01;61.22;100303.06;4941418;29;1027;-54
2022/06/23 03:18:10;;;;;;;;;;;;;;;15.82;60.89;100311.06;4941616;29;822;-52
2022/06/23 03:20:50;;;;;;;;;;;;;;;15.76;60.54;100315.72;4952582;29;1038;-53
2022/06/23 03:23:27;;;;;;;;;;;;;;;15.70;59.96;100314.91;4954878;28;838;-52
2022/06/23 03:25:55;;;;;;;;;;;;;;;15.62;59.78;100323.72;4958985;28;995;-52
2022/06/23 03:28:30;;;;;;;;;;;;;;;15.60;59.74;100325.09;4946061;28;1019;-52
2022/06/23 03:31:34;;;;;;;;;;;;;;;15.55;59.61;100334.16;4942599;29;1074;-53
2022/06/23 03:34:00;;;;;;;;;;;;;;;15.53;59.54;100336.34;4881221;29;1202;-53
2022/06/23 03:36:26;;;;;;;;;;;;;;;15.48;59.53;100339.09;4863652;29;1139;-53
2022/06/23 03:41:45;;;;;;;;;;;;;;;16.31;60.36;100351.44;4959602;29;1974;-53
2022/06/23 03:44:18;;;;;;;;;;;;;;;16.75;60.92;100356.13;4942333;29;2117;-52
2022/06/23 03:46:48;;;;;;;;;;;;;;;16.11;61.32;100346.88;4959782;29;1038;-52
2022/06/23 03:49:23;;;;;;;;;;;;;;;15.97;60.98;100348.59;4942576;29;968;-54
2022/06/23 03:51:53;;;;;;;;;;;;;;;15.85;60.63;100355.22;4964485;28;1139;-52
2022/06/23 03:54:21;;;;;;;;;;;;;;;15.78;60.50;100364.78;4941431;29;1193;-51
2022/06/23 03:56:47;;;;;;;;;;;;;;;15.73;60.11;100357.41;4959647;29;1196;-52
2022/06/23 03:59:14;;;;;;;;;;;;;;;15.65;60.01;100364.25;4959767;28;1466;-54
2022/06/23 04:01:41;;;;;;;;;;;;;;;15.66;59.90;100362.38;4941024;28;1960;-54
2022/06/23 04:04:16;;;;;;;;;;;;;;;15.59;59.62;100359.91;4941246;29;1174;-54
2022/06/23 04:06:43;;;;;;;;;;;;;;;15.68;59.77;100363.72;4963250;28;980;-55
2022/06/23 04:09:17;;;;;;;;;;;;;;;15.61;60.00;100370.59;4958646;28;1208;-53
2022/06/23 04:11:52;;;;;;;;;;;;;;;15.56;59.75;100374.16;4957614;28;955;-55
2022/06/23 04:14:38;;;;;;;;;;;;;;;15.50;59.72;100375.25;4938517;29;2423;-58
2022/06/23 04:17:09;;;;;;;;;;;;;;;15.46;59.98;100368.69;4950845;28;1234;-55
2022/06/23 04:19:35;;;;;;;;;;;;;;;15.46;59.40;100376.91;4959221;28;1194;-55
2022/06/23 04:22:05;;;;;;;;;;;;;;;15.47;59.51;100379.34;4958558;28;1914;-56
2022/06/23 04:24:30;;;;;;;;;;;;;;;15.40;59.64;100374.19;4958738;28;1453;-55
2022/06/23 04:26:57;;;;;;;;;;;;;;;15.38;59.50;100379.09;4958318;29;1023;-55
2022/06/23 04:29:27;;;;;;;;;;;;;;;15.42;59.30;100378.53;4941261;29;971;-54
2022/06/23 04:32:03;;;;;;;;;;;;;;;15.35;59.43;100379.66;4941516;29;1058;-54
2022/06/23 04:34:29;;;;;;;;;;;;;;;16.69;60.16;100378.41;4945201;28;1157;-54
2022/06/23 04:36:55;;;;;;;;;;;;;;;16.56;61.12;100368.88;4957008;28;1014;-54
2022/06/23 04:39:20;;;;;;;;;;;;;;;16.08;61.21;100369.41;4942126;28;1246;-53
2022/06/23 04:42:10;;;;;;;;;;;;;;;15.93;60.97;100374.94;4958211;29;1993;-54
2022/06/23 04:44:36;;;;;;;;;;;;;;;15.83;60.53;100373.03;4943480;29;2354;-54
2022/06/23 04:47:06;;;;;;;;;;;;;;;15.78;60.56;100367.53;4941100;29;1010;-52
2022/06/23 04:49:40;;;;;;;;;;;;;;;15.73;60.06;100368.38;4941131;28;1023;-52
2022/06/23 04:52:26;;;;;;;;;;;;;;;15.72;60.12;100370.31;4940501;29;1235;-51
2022/06/23 04:55:01;;;;;;;;;;;;;;;15.66;59.85;100371.41;4957574;28;1270;-50
2022/06/23 04:57:38;;;;;;;;;;;;;;;15.65;59.98;100369.75;4956233;28;1022;-51
2022/06/23 05:00:04;;;;;;;;;;;;;;;15.62;59.72;100370.31;4940324;29;1204;-52
2022/06/23 05:02:35;;;;;;;;;;;;;;;15.60;59.85;100369.78;4958001;28;1981;-53
2022/06/23 05:05:01;;;;;;;;;;;;;;;15.60;59.80;100377.16;4957712;28;1213;-51
2022/06/23 05:07:30;;;;;;;;;;;;;;;15.52;59.87;100373.88;4943694;29;989;-54
2022/06/23 05:09:56;;;;;;;;;;;;;;;15.51;59.65;100377.72;4957680;28;1003;-53
2022/06/23 05:12:24;;;;;;;;;;;;;;;15.52;59.58;100384.03;4960319;28;1121;-53
2022/06/23 05:14:49;;;;;;;;;;;;;;;15.54;59.57;100384.56;4943229;29;2891;-52
2022/06/23 05:17:19;;;;;;;;;;;;;;;15.47;59.58;100384.84;4957817;28;1150;-51
2022/06/23 05:19:44;;;;;;;;;;;;;;;15.51;59.54;100393.34;4957656;29;959;-52
2022/06/23 05:22:18;;;;;;;;;;;;;;;15.47;59.43;100390.31;4957492;28;1982;-53
2022/06/23 05:24:44;;;;;;;;;;;;;;;15.45;59.60;100397.19;4958093;29;1066;-53
2022/06/23 05:27:28;;;;;;;;;;;;;;;15.42;59.75;100389.50;4958097;28;1082;-54
2022/06/23 05:30:07;;;;;;;;;;;;;;;15.42;59.66;100395.81;4958209;28;1038;-55
2022/06/23 05:32:52;;;;;;;;;;;;;;;15.42;59.71;100398.56;4958040;28;1083;-54
2022/06/23 05:35:23;;;;;;;;;;;;;;;15.38;59.68;100394.72;4957888;28;995;-54
2022/06/23 05:37:52;;;;;;;;;;;;;;;15.38;59.71;100389.25;4957825;28;1184;-54
2022/06/23 05:40:28;;;;;;;;;;;;;;;16.93;59.87;100395.88;4963729;28;1007;-52
2022/06/23 05:42:55;;;;;;;;;;;;;;;16.17;61.21;100389.66;4941600;28;1907;-52
2022/06/23 05:45:20;;;;;;;;;;;;;;;15.95;61.21;100394.66;4960467;28;971;-52
2022/06/23 05:47:46;;;;;;;;;;;;;;;15.81;60.75;100389.78;4957539;29;1133;-53
2022/06/23 05:50:13;;;;;;;;;;;;;;;15.79;60.69;100397.44;4954000;29;983;-51
2022/06/23 05:52:48;;;;;;;;;;;;;;;15.73;60.53;100398.53;4939740;29;1154;-53
2022/06/23 05:55:32;;;;;;;;;;;;;;;15.71;60.26;100397.97;4946470;29;1035;-53
2022/06/23 05:57:59;;;;;;;;;;;;;;;17.93;55.31;100408.50;4937521;29;1126;-54
2022/06/23 06:00:26;;;;;;;;;;;;;;;16.89;57.20;100410.47;4937113;29;1249;-52
2022/06/23 06:03:01;;;;;;;;;;;;;;;15.98;57.42;100397.69;4936754;29;1910;-53
2022/06/23 06:05:31;;;;;;;;;;;;;;;17.52;58.56;100414.38;4949416;29;1071;-52
2022/06/23 06:07:57;;;;;;;;;;;;;;;17.03;58.51;100416.16;4949554;29;1236;-54
2022/06/23 06:10:23;;;;;;;;;;;;;;;16.51;57.83;100421.06;4937381;29;1247;-54
2022/06/23 06:12:48;;;;;;;;;;;;;;;16.30;57.11;100420.31;4941287;29;1023;-55
2022/06/23 06:15:18;;;;;;;;;;;;;;;17.07;58.91;100430.94;4937743;29;1113;-54
2022/06/23 06:17:43;;;;;;;;;;;;;;;16.52;57.88;100412.56;4938227;29;1099;-56
2022/06/23 06:20:09;;;;;;;;;;;;;;;16.41;56.92;100433.75;4937578;29;1178;-55
2022/06/23 06:22:38;;;;;;;;;;;;;;;16.31;55.65;100442.00;4939370;29;1910;-56
2022/06/23 06:25:04;;;;;;;;;;;;;;;16.20;55.21;100437.63;4941710;29;1019;-53
2022/06/23 06:27:30;;;;;;;;;;;;;;;16.10;54.76;100426.72;4940460;29;1430;-56
2022/06/23 06:29:55;;;;;;;;;;;;;;;16.07;54.33;100417.94;4941044;29;987;-52
2022/06/23 06:32:23;;;;;;;;;;;;;;;15.99;54.32;100421.25;4941957;29;1067;-55
2022/06/23 06:34:50;;;;;;;;;;;;;;;16.07;53.84;100411.63;4941571;29;855;-55
2022/06/23 06:37:15;;;;;;;;;;;;;;;15.95;53.83;100430.31;4944574;29;1040;-53
2022/06/23 06:39:43;;;;;;;;;;;;;;;15.95;53.72;100419.34;4943267;28;944;-54
2022/06/23 06:42:12;;;;;;;;;;;;;;;15.94;53.32;100413.03;4940303;29;1977;-56
2022/06/23 06:44:40;;;;;;;;;;;;;;;15.96;53.38;100421.78;4941380;29;1038;-57
2022/06/23 06:47:08;;;;;;;;;;;;;;;15.89;53.35;100433.06;4952590;28;1122;-59
2022/06/23 06:49:33;;;;;;;;;;;;;;;15.92;53.13;100404.25;4941399;29;976;-58
2022/06/23 06:51:58;;;;;;;;;;;;;;;15.92;53.32;100407.00;4954955;28;1246;-55
2022/06/23 06:54:28;;;;;;;;;;;;;;;15.86;53.30;100421.81;4945326;29;1022;-53
2022/06/23 06:56:55;;;;;;;;;;;;;;;15.92;53.12;100415.22;4931175;28;1087;-53
2022/06/23 06:59:20;;;;;;;;;;;;;;;15.85;52.87;100431.16;4962098;28;1018;-54
2022/06/23 07:01:47;;;;;;;;;;;;;;;15.81;53.06;100419.09;4961547;28;1906;-55
2022/06/23 07:04:26;;;;;;;;;;;;;;;15.83;52.62;100417.72;4944291;29;1106;-53
2022/06/23 07:06:53;;;;;;;;;;;;;;;15.80;52.50;100425.69;4942572;28;1031;-54
2022/06/23 07:09:37;;;;;;;;;;;;;;;15.77;52.65;100428.94;4962322;28;937;-55
2022/06/23 07:12:23;;;;;;;;;;;;;;;15.81;52.45;100424.56;4960111;28;1120;-54
2022/06/23 07:14:50;;;;;;;;;;;;;;;15.79;52.35;100424.00;4943139;29;986;-54
2022/06/23 07:17:37;;;;;;;;;;;;;;;15.76;52.36;100427.31;4943169;29;1015;-54
2022/06/23 07:20:02;;;;;;;;;;;;;;;15.99;53.46;100413.03;4959450;29;1062;-54
2022/06/23 07:22:29;;;;;;;;;;;;;;;15.85;53.82;100425.66;4961295;28;1964;-53
2022/06/23 07:24:55;;;;;;;;;;;;;;;15.80;53.29;100420.22;4950836;28;1036;-53
2022/06/23 07:27:31;;;;;;;;;;;;;;;15.81;53.32;100414.44;4968256;28;1101;-52
2022/06/23 07:30:04;;;;;;;;;;;;;;;15.77;52.96;100415.22;4948902;29;1051;-55
2022/06/23 07:32:33;;;;;;;;;;;;;;;15.76;52.51;100413.59;4947546;28;1150;-57
2022/06/23 07:35:01;;;;;;;;;;;;;;;15.70;52.54;100426.50;4959572;29;982;-57
2022/06/23 07:37:31;;;;;;;;;;;;;;;15.71;52.34;100431.69;4966413;28;981;-55
2022/06/23 07:40:00;;;;;;;;;;;;;;;15.69;52.22;100422.09;4959661;29;979;-56
2022/06/23 07:42:28;;;;;;;;;;;;;;;15.63;52.62;100429.50;4959526;29;1914;-57
2022/06/23 07:44:56;;;;;;;;;;;;;;;15.70;52.14;100441.00;4959595;29;975;-57
2022/06/23 07:47:21;;;;;;;;;;;;;;;15.73;52.19;100434.97;4959423;29;1200;-57
2022/06/23 07:49:47;;;;;;;;;;;;;;;15.68;52.33;100432.25;4959336;29;967;-55
2022/06/23 07:52:14;;;;;;;;;;;;;;;15.62;52.04;100425.13;4945979;28;1024;-52
2022/06/23 07:54:39;;;;;;;;;;;;;;;15.63;52.01;100428.69;4941822;29;846;-54
2022/06/23 07:57:05;;;;;;;;;;;;;;;15.58;52.16;100443.22;4958228;29;940;-55
2022/06/23 07:59:33;;;;;;;;;;;;;;;15.58;52.09;100429.50;4948617;28;1209;-56
2022/06/23 08:02:01;;;;;;;;;;;;;;;15.56;52.17;100418.81;4967863;28;2004;-54
2022/06/23 08:04:37;;;;;;;;;;;;;;;15.54;52.00;100429.25;4940592;29;1252;-54
2022/06/23 08:07:03;;;;;;;;;;;;;;;15.57;52.16;100420.47;4940371;28;966;-56
2022/06/23 08:09:30;;;;;;;;;;;;;;;15.57;51.70;100423.22;4941740;29;1553;-54
2022/06/23 08:14:44;;;;;;;;;;;;;;;15.52;51.67;100404.03;4961067;28;1073;-56
2022/06/23 08:17:11;;;;;;;;;;;;;;;15.50;51.98;100408.97;4958845;28;916;-52
2022/06/23 08:19:39;;;;;;;;;;;;;;;15.56;51.65;100404.31;4959031;29;987;-52
2022/06/23 08:22:07;;;;;;;;;;;;;;;15.54;51.93;100403.75;4941299;29;1906;-51
2022/06/23 08:24:32;;;;;;;;;;;;;;;15.55;51.79;100419.09;4956376;28;1058;-53
2022/06/23 08:27:03;;;;;;;;;;;;;;;15.62;51.42;100399.66;4941554;29;1070;-53
2022/06/23 08:29:30;;;;;;;;;;;;;;;15.54;51.75;100401.84;4958755;28;1094;-54
2022/06/23 08:31:56;;;;;;;;;;;;;;;15.56;51.49;100390.59;4961194;28;1062;-53
2022/06/23 08:34:22;;;;;;;;;;;;;;;15.51;51.55;100396.09;4958450;28;1066;-52
2022/06/23 08:36:49;;;;;;;;;;;;;;;15.55;51.46;100375.25;4942082;29;1134;-50
2022/06/23 08:39:16;;;;;;;;;;;;;;;15.50;52.02;100378.00;4960132;28;1189;-52
2022/06/23 08:41:43;;;;;;;;;;;;;;;15.45;51.71;100372.53;4940401;29;1911;-54
2022/06/23 08:44:14;;;;;;;;;;;;;;;15.53;51.74;100372.78;4940577;29;983;-55
2022/06/23 08:46:45;;;;;;;;;;;;;;;15.56;51.73;100354.97;4959400;28;967;-55
2022/06/23 08:49:17;;;;;;;;;;;;;;;15.54;51.60;100370.88;4941150;28;1019;-54
2022/06/23 08:52:01;;;;;;;;;;;;;;;15.56;51.93;100360.47;4957608;29;996;-56
2022/06/23 08:54:38;;;;;;;;;;;;;;;15.47;52.02;100354.69;4958543;28;1205;-55
2022/06/23 08:57:06;;;;;;;;;;;;;;;15.47;52.12;100364.84;4951931;29;963;-55
2022/06/23 08:59:49;;;;;;;;;;;;;;;15.53;52.01;100381.00;4957961;28;1212;-55
2022/06/23 09:02:24;;;;;;;;;;;;;;;15.52;51.81;100362.13;4957966;28;1902;-55
2022/06/23 09:04:56;;;;;;;;;;;;;;;15.53;51.83;100358.28;4958355;28;1156;-55
2022/06/23 09:07:27;;;;;;;;;;;;;;;15.49;51.90;100363.47;4957572;28;827;-55
2022/06/23 09:09:57;;;;;;;;;;;;;;;15.55;51.58;100356.06;4958055;29;1035;-55
2022/06/23 09:12:41;;;;;;;;;;;;;;;15.54;51.89;100349.78;4940372;29;1062;-56
2022/06/23 09:15:09;;;;;;;;;;;;;;;15.49;51.85;100341.56;4953189;28;1081;-54
2022/06/23 09:17:50;;;;;;;;;;;;;;;15.48;52.05;100347.31;4957681;28;1169;-57
2022/06/23 09:20:22;;;;;;;;;;;;;;;15.55;51.65;100342.38;4957294;28;1097;-54
2022/06/23 09:23:02;;;;;;;;;;;;;;;15.47;51.86;100342.94;4957979;29;1981;-53
2022/06/23 09:25:28;;;;;;;;;;;;;;;15.52;52.13;100342.94;4940014;29;1086;-55
2022/06/23 09:28:01;;;;;;;;;;;;;;;15.47;51.96;100342.94;4957809;28;1121;-53
2022/06/23 09:30:26;;;;;;;;;;;;;;;15.50;52.20;100345.94;4957734;28;1105;-55
2022/06/23 09:32:52;;;;;;;;;;;;;;;15.51;51.84;100336.59;4957034;29;991;-55
2022/06/23 09:35:44;;;;;;;;;;;;;;;15.58;51.90;100336.31;4957843;29;1032;-55
2022/06/23 09:38:13;;;;;;;;;;;;;;;15.55;51.96;100345.09;4939693;28;1030;-53
2022/06/23 09:40:38;;;;;;;;;;;;;;;15.54;51.97;100337.97;4961749;28;1010;-55
2022/06/23 09:43:10;;;;;;;;;;;;;;;15.49;52.20;100333.34;4955527;28;2385;-55
2022/06/23 09:45:42;;;;;;;;;;;;;;;15.54;52.02;100332.50;4958935;28;1295;-55
2022/06/23 09:48:20;;;;;;;;;;;;;;;15.56;51.95;100328.38;4938303;29;1272;-53
2022/06/23 09:51:04;;;;;;;;;;;;;;;15.60;52.04;100331.41;4957385;28;1216;-52
2022/06/23 09:53:46;;;;;;;;;;;;;;;15.67;52.30;100337.41;4962477;28;1201;-56
2022/06/23 09:56:12;;;;;;;;;;;;;;;15.62;52.45;100339.34;4946652;28;1018;-54
2022/06/23 09:58:47;;;;;;;;;;;;;;;15.55;52.36;100326.72;4955699;28;1245;-52
2022/06/23 10:01:16;;;;;;;;;;;;;;;15.62;52.45;100337.41;4965288;28;1902;-49
2022/06/23 10:03:42;;;;;;;;;;;;;;;15.63;52.31;100341.81;4940374;29;1122;-53
2022/06/23 10:06:15;;;;;;;;;;;;;;;15.60;52.33;100336.88;4953564;29;1806;-52
2022/06/23 10:08:43;;;;;;;;;;;;;;;15.60;52.06;100336.88;4940862;29;1436;-55
2022/06/23 10:11:21;;;;;;;;;;;;;;;15.60;52.16;100331.41;4955841;29;1182;-51
2022/06/23 10:13:58;;;;;;;;;;;;;;;15.57;52.29;100334.69;4965128;28;1043;-50
2022/06/23 10:16:36;;;;;;;;;;;;;;;15.56;52.20;100327.56;4966444;28;1212;-54
2022/06/23 10:19:06;;;;;;;;;;;;;;;15.60;52.07;100334.16;4964782;28;1268;-53
2022/06/23 10:21:31;;;;;;;;;;;;;;;15.58;52.13;100336.31;4948663;29;1971;-53
2022/06/23 10:23:57;;;;;;;;;;;;;;;15.64;51.74;100337.13;4960858;28;1367;-53
2022/06/23 10:26:43;;;;;;;;;;;;;;;15.56;51.91;100333.06;4961997;28;1142;-53
2022/06/23 10:29:09;;;;;;;;;;;;;;;15.62;51.88;100339.34;4962832;28;1082;-50
2022/06/23 10:31:43;;;;;;;;;;;;;;;15.62;51.79;100342.09;4962758;28;1193;-54
2022/06/23 10:34:21;;;;;;;;;;;;;;;15.62;51.68;100342.91;4961432;28;1171;-51
2022/06/23 10:37:22;;;;;;;;;;;;;;;15.64;51.57;100348.94;4952504;29;1074;-53
2022/06/23 10:40:20;;;;;;;;;;;;;;;15.58;51.57;100350.03;4895440;29;1506;-53
2022/06/23 10:42:46;;;;;;;;;;;;;;;15.57;51.68;100351.97;4927044;28;2002;-52
2022/06/23 10:45:21;;;;;;;;;;;;;;;15.54;51.92;100355.25;4967593;28;1039;-54
2022/06/23 10:48:06;;;;;;;;;;;;;;;15.64;51.81;100353.56;4956522;28;1026;-55
2022/06/23 10:51:04;;;;;;;;;;;;;;;15.60;51.95;100356.06;4944156;29;1320;-56
2022/06/23 10:53:32;;;;;;;;;;;;;;;15.59;51.69;100361.84;4927949;28;1328;-56
2022/06/23 10:55:59;;;;;;;;;;;;;;;15.57;51.62;100365.66;4965884;28;1077;-56
2022/06/23 10:58:25;;;;;;;;;;;;;;;15.58;51.69;100366.47;4955074;29;1158;-52
2022/06/23 11:01:09;;;;;;;;;;;;;;;15.60;51.72;100360.72;4954465;29;1277;-55
2022/06/23 11:03:54;;;;;;;;;;;;;;;15.59;51.78;100378.28;4953898;29;1194;-50
2022/06/23 11:06:42;;;;;;;;;;;;;;;15.57;51.78;100370.31;4957610;29;1075;-53
2022/06/23 11:09:10;;;;;;;;;;;;;;;15.60;51.85;100369.78;4951708;28;1154;-55
2022/06/23 11:11:58;;;;;;;;;;;;;;;15.62;51.79;100370.31;4959915;29;1018;-53
2022/06/23 11:14:42;;;;;;;;;;;;;;;15.58;51.61;100371.94;4963251;28;1383;-54
2022/06/23 11:17:27;;;;;;;;;;;;;;;15.52;51.94;100356.63;4961473;28;955;-52
2022/06/23 11:19:55;;;;;;;;;;;;;;;15.48;51.94;100363.75;4940802;28;1383;-53
2022/06/23 11:22:43;;;;;;;;;;;;;;;15.60;51.55;100369.78;4966305;28;1906;-55
2022/06/23 11:25:32;;;;;;;;;;;;;;;15.60;51.61;100368.94;4953426;28;1374;-57
2022/06/23 11:28:04;;;;;;;;;;;;;;;15.58;51.73;100382.91;4914093;28;1203;-53
2022/06/23 11:30:33;;;;;;;;;;;;;;;15.52;51.82;100378.56;4969892;28;1264;-53
2022/06/23 11:33:11;;;;;;;;;;;;;;;15.54;51.73;100381.81;4940117;28;1324;-53
2022/06/23 11:35:40;;;;;;;;;;;;;;;15.53;51.57;100381.00;4966230;28;1094;-51
2022/06/23 11:38:12;;;;;;;;;;;;;;;15.47;51.90;100381.28;4958728;28;1277;-55
2022/06/23 11:40:53;;;;;;;;;;;;;;;15.50;51.67;100380.72;4970714;28;1220;-54
2022/06/23 11:43:19;;;;;;;;;;;;;;;15.44;52.01;100387.31;4973294;28;1977;-57
2022/06/23 11:46:03;;;;;;;;;;;;;;;15.48;51.51;100386.50;4950175;29;1248;-56
2022/06/23 11:48:48;;;;;;;;;;;;;;;15.49;51.68;100381.84;4974848;28;1114;-56
2022/06/23 11:51:13;;;;;;;;;;;;;;;15.52;51.54;100373.88;4964233;28;1242;-56
2022/06/23 11:53:51;;;;;;;;;;;;;;;15.49;51.63;100373.63;4970338;28;1396;-54
2022/06/23 11:56:16;;;;;;;;;;;;;;;15.49;51.49;100371.69;4939922;29;1178;-50
2022/06/23 11:58:57;;;;;;;;;;;;;;;15.46;51.64;100369.53;4964276;28;979;-52
2022/06/23 12:01:23;;;;;;;;;;;;;;;15.45;51.84;100362.38;4960604;28;1981;-55
2022/06/23 12:03:54;;;;;;;;;;;;;;;15.45;51.97;100358.84;4953587;28;1071;-56
2022/06/23 12:06:32;;;;;;;;;;;;;;;15.50;51.50;100348.69;4941954;29;1015;-56
2022/06/23 12:08:57;;;;;;;;;;;;;;;15.47;51.85;100356.63;4944991;29;1142;-56
2022/06/23 12:11:22;;;;;;;;;;;;;;;15.48;51.58;100350.06;4959223;29;1015;-56
2022/06/23 12:13:48;;;;;;;;;;;;;;;15.43;52.01;100352.78;4954498;28;1121;-50
2022/06/23 12:16:13;;;;;;;;;;;;;;;15.49;51.77;100338.00;4958863;28;1019;-54
2022/06/23 12:19:05;;;;;;;;;;;;;;;15.47;51.63;100334.72;4956839;28;988;-52
2022/06/23 12:21:31;;;;;;;;;;;;;;;15.48;51.85;100328.13;4946705;29;1984;-50
2022/06/23 12:24:00;;;;;;;;;;;;;;;15.47;51.56;100331.97;4958274;29;1015;-56
2022/06/23 12:26:30;;;;;;;;;;;;;;;15.51;51.53;100331.13;4940514;29;968;-52
2022/06/23 12:29:04;;;;;;;;;;;;;;;15.46;51.49;100335.81;4941011;29;1058;-50
2022/06/23 12:31:32;;;;;;;;;;;;;;;15.47;51.71;100335.50;4938500;29;1079;-53
2022/06/23 12:34:03;;;;;;;;;;;;;;;15.47;52.02;100340.19;4941289;29;979;-53
2022/06/23 12:36:33;;;;;;;;;;;;;;;15.43;51.93;100342.69;4959041;29;941;-52
2022/06/23 12:39:02;;;;;;;;;;;;;;;15.45;51.73;100345.13;4958826;29;983;-52
2022/06/23 12:41:33;;;;;;;;;;;;;;;15.39;51.81;100342.41;4958676;29;1910;-54
2022/06/23 12:44:18;;;;;;;;;;;;;;;15.42;51.61;100345.66;4940344;29;1256;-54
2022/06/23 12:46:53;;;;;;;;;;;;;;;15.45;51.72;100354.16;4952894;28;987;-56
2022/06/23 12:49:34;;;;;;;;;;;;;;;15.47;51.79;100360.19;4947507;29;956;-56
2022/06/23 12:52:03;;;;;;;;;;;;;;;15.46;51.41;100352.25;4957774;29;1118;-54
2022/06/23 12:54:47;;;;;;;;;;;;;;;15.45;51.62;100362.38;4959681;28;1112;-55
2022/06/23 12:57:13;;;;;;;;;;;;;;;15.39;51.68;100367.06;4964193;28;1221;-54
2022/06/23 12:59:57;;;;;;;;;;;;;;;15.40;51.61;100355.00;4960473;28;1138;-54
2022/06/23 13:02:27;;;;;;;;;;;;;;;15.38;51.79;100364.59;4950302;29;1988;-56
2022/06/23 13:05:08;;;;;;;;;;;;;;;15.39;51.85;100353.34;4935730;29;1358;-55
2022/06/23 13:07:39;;;;;;;;;;;;;;;15.45;51.80;100362.38;4955725;28;1221;-55
2022/06/23 13:10:25;;;;;;;;;;;;;;;15.37;51.98;100355.53;4942852;29;1365;-54
2022/06/23 13:12:59;;;;;;;;;;;;;;;15.36;51.79;100361.28;4957703;29;1122;-53
2022/06/23 13:15:44;;;;;;;;;;;;;;;15.34;51.97;100353.34;4958204;29;1055;-53
2022/06/23 13:18:16;;;;;;;;;;;;;;;15.38;52.04;100359.13;4963750;28;1198;-56
2022/06/23 13:20:47;;;;;;;;;;;;;;;15.40;51.90;100360.47;4957669;29;1031;-55